createdAt,value
2022-12-15T00:01:03.051Z,14.79
2022-12-15T00:06:25.191Z,14.38
2022-12-15T00:11:46.971Z,13.95
2022-12-15T00:17:09.854Z,13.54
2022-12-15T00:22:31.715Z,13.30
2022-12-15T00:27:53.323Z,13.71
2022-12-15T00:33:15.666Z,13.57
2022-12-15T00:38:37.017Z,13.39
2022-12-15T00:43:40.673Z,13.00
2022-12-15T00:48:44.562Z,12.59
2022-12-15T00:54:07.251Z,12.56
2022-12-15T00:59:30.117Z,12.57
2022-12-15T01:04:51.708Z,12.32
2022-12-15T01:10:13.753Z,12.15
2022-12-15T01:15:35.276Z,11.94
2022-12-15T01:20:38.388Z,11.81
2022-12-15T01:25:42.602Z,11.36
2022-12-15T01:30:46.379Z,10.86
2022-12-15T01:35:58.357Z,10.62
2022-12-15T01:41:07.575Z,10.82
2022-12-15T01:46:14.200Z,11.68
2022-12-15T01:51:29.175Z,12.55
2022-12-15T01:56:38.403Z,12.75
2022-12-15T02:01:44.237Z,13.01
2022-12-15T02:06:53.910Z,13.34
2022-12-15T02:12:15.099Z,13.64
2022-12-15T02:17:39.810Z,13.88
2022-12-15T02:23:07.887Z,13.97
2022-12-15T02:28:18.732Z,13.92
2022-12-15T02:33:30.719Z,13.75
2022-12-15T02:38:37.625Z,13.68
2022-12-15T02:43:43.317Z,13.75
2022-12-15T02:49:02.799Z,13.91
2022-12-15T02:54:06.491Z,13.87
2022-12-15T02:59:31.262Z,13.57
2022-12-15T03:04:34.496Z,12.30
2022-12-15T03:09:38.125Z,11.87
2022-12-15T03:14:41.161Z,12.25
2022-12-15T03:19:44.208Z,12.85
2022-12-15T03:24:47.349Z,12.83
2022-12-15T03:29:50.839Z,13.08
2022-12-15T03:34:53.832Z,12.93
2022-12-15T03:39:57.892Z,12.99
2022-12-15T03:45:01.945Z,12.90
2022-12-15T03:50:06.086Z,12.54
2022-12-15T03:55:10.314Z,12.25
2022-12-15T04:00:18.836Z,12.32
2022-12-15T04:05:25.961Z,12.25
2022-12-15T04:10:34.769Z,12.66
2022-12-15T04:15:39.679Z,13.11
2022-12-15T04:20:43.390Z,13.41
2022-12-15T04:26:04.787Z,13.59
2022-12-15T04:31:28.684Z,13.39
2022-12-15T04:36:51.333Z,13.21
2022-12-15T04:42:16.413Z,13.58
2022-12-15T04:47:37.967Z,13.90
2022-12-15T04:52:59.787Z,14.07
2022-12-15T04:58:28.301Z,14.28
2022-12-15T05:03:50.008Z,14.37
2022-12-15T05:09:12.240Z,14.34
2022-12-15T05:14:34.157Z,14.48
2022-12-15T05:19:56.163Z,14.39
2022-12-15T05:25:17.797Z,14.48
2022-12-15T05:30:40.119Z,14.78
2022-12-15T05:35:43.738Z,14.64
2022-12-15T05:40:46.747Z,14.76
2022-12-15T05:45:49.780Z,14.72
2022-12-15T05:50:53.212Z,14.99
2022-12-15T05:56:02.692Z,15.02
2022-12-15T06:01:12.582Z,15.34
2022-12-15T06:06:16.221Z,15.50
2022-12-15T06:11:21.613Z,15.63
2022-12-15T06:16:28.293Z,15.96
2022-12-15T06:21:33.066Z,16.02
2022-12-15T06:26:38.299Z,16.06
2022-12-15T06:31:43.397Z,16.37
2022-12-15T06:36:46.608Z,16.45
2022-12-15T06:41:49.963Z,16.60
2022-12-15T06:46:53.213Z,16.81
2022-12-15T06:51:56.362Z,16.70
2022-12-15T06:56:59.486Z,16.35
2022-12-15T07:02:03.045Z,14.68
2022-12-15T07:07:06.664Z,14.62
2022-12-15T07:12:12.725Z,14.94
2022-12-15T07:17:15.858Z,16.01
2022-12-15T07:22:20.600Z,16.36
2022-12-15T07:27:23.910Z,16.01
2022-12-15T07:32:26.961Z,17.27
2022-12-15T07:37:30.413Z,20.31
2022-12-15T07:42:33.633Z,18.52
2022-12-15T07:47:37.368Z,19.03
2022-12-15T07:52:40.969Z,18.53
2022-12-15T07:57:44.637Z,18.13
2022-12-15T08:02:47.826Z,20.12
2022-12-15T08:07:53.857Z,20.14
2022-12-15T08:12:57.469Z,19.82
2022-12-15T08:18:01.256Z,18.44
2022-12-15T08:23:05.077Z,18.09
2022-12-15T08:28:08.561Z,18.65
2022-12-15T08:33:13.098Z,20.26
2022-12-15T08:38:16.206Z,21.66
2022-12-15T08:43:19.710Z,20.84
2022-12-15T08:48:23.321Z,21.12
2022-12-15T08:53:31.871Z,22.35
2022-12-15T08:58:35.878Z,23.96
2022-12-15T09:03:39.743Z,24.34
2022-12-15T09:08:43.185Z,24.81
2022-12-15T09:13:46.673Z,25.17
2022-12-15T09:18:55.356Z,25.15
2022-12-15T09:24:02.106Z,24.88
2022-12-15T09:29:05.516Z,26.11
2022-12-15T09:34:13.410Z,26.10
2022-12-15T09:39:17.371Z,26.20
2022-12-15T09:44:23.427Z,26.56
2022-12-15T09:49:53.951Z,25.97
2022-12-15T09:54:59.461Z,25.57
2022-12-15T10:00:12.425Z,26.21
2022-12-15T10:05:57.708Z,24.75
2022-12-15T10:11:21.960Z,25.40
2022-12-15T10:16:55.002Z,25.30
2022-12-15T10:21:59.364Z,25.60
2022-12-15T10:27:19.695Z,25.78
2022-12-15T10:32:43.049Z,25.96
2022-12-15T10:37:46.615Z,25.48
2022-12-15T10:42:53.484Z,24.93
2022-12-15T10:47:59.524Z,24.53
2022-12-15T10:53:09.358Z,23.90
2022-12-15T10:58:22.017Z,23.46
2022-12-15T11:03:28.081Z,23.13
2022-12-15T11:08:33.183Z,23.47
2022-12-15T11:13:37.005Z,23.31
2022-12-15T11:18:54.299Z,23.29
2022-12-15T11:24:14.354Z,22.67
2022-12-15T11:29:25.229Z,22.70
2022-12-15T11:34:40.651Z,22.52
2022-12-15T11:40:22.160Z,22.38
2022-12-15T11:45:27.628Z,22.72
2022-12-15T11:50:57.935Z,23.52
2022-12-15T11:56:55.474Z,23.24
2022-12-15T12:02:04.257Z,23.29
2022-12-15T12:07:14.075Z,23.43
2022-12-15T12:12:39.468Z,23.06
2022-12-15T12:17:53.918Z,23.15
2022-12-15T12:23:05.082Z,23.46
2022-12-15T12:28:20.286Z,23.08
2022-12-15T12:33:44.876Z,23.32
2022-12-15T12:38:56.356Z,23.04
2022-12-15T12:44:29.929Z,23.08
2022-12-15T12:49:41.774Z,23.04
2022-12-15T12:55:00.038Z,23.18
2022-12-15T13:00:17.186Z,23.17
2022-12-15T13:05:33.465Z,23.27
2022-12-15T13:10:42.218Z,23.35
2022-12-15T13:15:51.468Z,23.70
2022-12-15T13:20:57.482Z,23.29
2022-12-15T13:26:11.711Z,22.99
2022-12-15T13:31:18.272Z,23.21
2022-12-15T13:36:40.299Z,23.11
2022-12-15T13:47:29.864Z,23.10
2022-12-15T13:53:18.463Z,23.21
2022-12-15T13:58:24.975Z,22.55
2022-12-15T14:03:28.300Z,22.17
2022-12-15T14:08:32.346Z,22.11
2022-12-15T14:13:37.353Z,21.87
2022-12-15T14:18:44.067Z,20.94
2022-12-15T14:24:28.472Z,20.30
2022-12-15T14:29:14.561Z,19.76
2022-12-15T14:34:29.595Z,19.48
2022-12-15T14:39:38.419Z,19.18
2022-12-15T14:44:49.986Z,18.89
2022-12-15T14:49:57.905Z,18.64
2022-12-15T14:55:20.641Z,18.38
2022-12-15T15:00:26.674Z,18.23
2022-12-15T15:05:33.326Z,18.11
2022-12-15T15:10:36.565Z,17.78
2022-12-15T15:15:39.751Z,17.67
2022-12-15T15:21:03.653Z,17.55
2022-12-15T15:26:06.905Z,17.26
2022-12-15T15:31:25.260Z,16.97
2022-12-15T15:36:33.327Z,16.89
2022-12-15T15:41:36.708Z,16.70
2022-12-15T15:46:49.207Z,16.40
2022-12-15T15:51:52.573Z,16.45
2022-12-15T15:56:55.665Z,16.06
2022-12-15T16:02:00.021Z,16.19
2022-12-15T16:07:04.821Z,16.33
2022-12-15T16:12:17.346Z,16.31
2022-12-15T16:17:21.112Z,16.21
2022-12-15T16:22:25.000Z,16.20
2022-12-15T16:27:28.107Z,16.39
2022-12-15T16:32:31.561Z,16.46
2022-12-15T16:37:39.485Z,16.58
2022-12-15T16:42:43.650Z,16.56
2022-12-15T16:47:47.001Z,16.47
2022-12-15T16:52:53.693Z,16.56
2022-12-15T16:58:00.593Z,16.26
2022-12-15T17:03:04.086Z,16.40
2022-12-15T17:08:16.415Z,16.40
2022-12-15T17:13:40.580Z,16.31
2022-12-15T17:18:47.109Z,16.31
2022-12-15T17:23:53.968Z,16.33
2022-12-15T17:29:19.849Z,16.16
2022-12-15T17:34:31.637Z,16.05
2022-12-15T17:39:36.323Z,16.49
2022-12-15T17:44:40.396Z,16.33
2022-12-15T17:49:44.069Z,16.46
2022-12-15T17:54:47.393Z,16.43
2022-12-15T17:59:51.174Z,16.39
2022-12-15T18:04:55.608Z,16.52
2022-12-15T18:09:59.016Z,16.22
2022-12-15T18:15:02.699Z,16.21
2022-12-15T18:20:08.373Z,16.35
2022-12-15T18:25:28.880Z,15.98
2022-12-15T18:30:32.309Z,16.20
2022-12-15T18:35:40.492Z,16.10
2022-12-15T18:40:48.491Z,15.94
2022-12-15T18:45:52.995Z,15.93
2022-12-15T18:50:58.667Z,15.96
2022-12-15T18:56:06.039Z,15.89
2022-12-15T19:01:11.138Z,15.95
2022-12-15T19:06:27.058Z,16.03
2022-12-15T19:11:33.655Z,16.01
2022-12-15T19:16:55.355Z,15.91
2022-12-15T19:22:17.560Z,15.72
2022-12-15T19:27:23.765Z,15.71
2022-12-15T19:32:27.171Z,15.81
2022-12-15T19:37:31.675Z,15.99
2022-12-15T19:42:37.504Z,15.98
2022-12-15T19:47:40.702Z,15.99
2022-12-15T19:52:47.362Z,15.95
2022-12-15T19:57:50.428Z,15.95
2022-12-15T20:02:55.907Z,16.06
2022-12-15T20:08:00.102Z,15.74
2022-12-15T20:13:03.820Z,15.70
2022-12-15T20:18:06.985Z,15.92
2022-12-15T20:23:32.134Z,15.82
2022-12-15T20:28:35.473Z,15.98
2022-12-15T20:33:38.874Z,16.04
2022-12-15T20:38:43.348Z,15.87
2022-12-15T20:43:47.434Z,16.02
2022-12-15T20:48:52.394Z,15.92
2022-12-15T20:53:58.746Z,16.19
2022-12-15T20:59:02.428Z,16.09
2022-12-15T21:04:26.282Z,16.35
2022-12-15T21:09:29.381Z,16.39
2022-12-15T21:14:32.462Z,16.42
2022-12-15T21:19:36.093Z,16.35
2022-12-15T21:24:39.309Z,16.33
2022-12-15T21:29:47.287Z,16.15
2022-12-15T21:34:54.078Z,16.31
2022-12-15T21:39:59.766Z,16.35
2022-12-15T21:45:13.128Z,16.39
2022-12-15T21:50:18.909Z,16.40
2022-12-15T21:55:26.769Z,16.70
2022-12-15T22:00:29.764Z,16.50
2022-12-15T22:05:32.912Z,16.56
2022-12-15T22:10:36.470Z,16.37
2022-12-15T22:15:40.087Z,16.62
2022-12-15T22:20:45.887Z,16.60
2022-12-15T22:25:54.639Z,16.61
2022-12-15T22:30:58.687Z,16.61
2022-12-15T22:36:01.894Z,16.68
2022-12-15T22:41:07.260Z,16.36
2022-12-15T22:46:13.987Z,16.48
2022-12-15T22:51:17.818Z,16.43
2022-12-15T22:56:33.496Z,16.35
2022-12-15T23:01:36.830Z,16.28
2022-12-15T23:06:41.393Z,16.32
2022-12-15T23:11:45.521Z,15.91
2022-12-15T23:16:49.103Z,16.23
2022-12-15T23:21:52.618Z,16.20
2022-12-15T23:26:56.957Z,15.98
2022-12-15T23:32:00.762Z,16.03
2022-12-15T23:37:04.296Z,15.65
2022-12-15T23:42:07.343Z,15.37
2022-12-15T23:47:11.346Z,15.50
2022-12-15T23:52:14.452Z,15.25
2022-12-15T23:57:18.182Z,15.61
